createdAt,value
2019-03-24T00:09:27.064Z,70.87
2019-03-24T00:12:27.028Z,66.53
2019-03-24T00:15:35.984Z,72.47
2019-03-24T00:18:36.987Z,70.03
2019-03-24T00:21:38.231Z,64.33
2019-03-24T00:24:38.283Z,95.30
2019-03-24T00:27:47.185Z,64.50
2019-03-24T00:30:48.419Z,81.43
2019-03-24T00:33:49.707Z,67.20
2019-03-24T00:40:17.527Z,70.17
2019-03-24T00:43:18.003Z,67.43
2019-03-24T00:46:19.276Z,66.90
2019-03-24T00:49:18.801Z,69.63
2019-03-24T00:59:31.363Z,70.93
2019-03-24T01:02:40.162Z,56.17
2019-03-24T01:05:39.911Z,64.33
2019-03-24T01:12:15.031Z,62.53
2019-03-24T01:15:14.923Z,78.13
2019-03-24T01:21:28.899Z,70.33
2019-03-24T01:28:02.651Z,75.23
2019-03-24T01:31:02.500Z,88.23
2019-03-24T01:37:26.515Z,73.03
2019-03-24T01:49:52.321Z,79.10
2019-03-24T01:53:01.514Z,80.80
2019-03-24T01:56:01.611Z,68.47
2019-03-24T02:02:36.431Z,73.00
2019-03-24T02:05:37.532Z,68.87
2019-03-24T02:08:37.051Z,75.00
2019-03-24T02:17:58.646Z,73.50
2019-03-24T02:24:38.375Z,65.33
2019-03-24T02:31:33.389Z,67.80
2019-03-24T02:34:42.501Z,76.33
2019-03-24T02:37:42.618Z,75.03
2019-03-24T02:40:51.483Z,74.47
2019-03-24T02:46:52.495Z,68.63
2019-03-24T02:49:52.580Z,72.77
2019-03-24T02:53:01.618Z,70.37
2019-03-24T02:56:01.793Z,65.80
2019-03-24T02:59:10.845Z,82.43
2019-03-24T03:02:10.912Z,75.93
2019-03-24T03:08:40.235Z,64.37
2019-03-24T03:11:39.928Z,71.63
2019-03-24T03:18:12.573Z,59.73
2019-03-24T03:21:12.463Z,66.40
2019-03-24T03:24:21.511Z,71.30
2019-03-24T03:27:21.377Z,60.13
2019-03-24T03:30:30.391Z,79.23
2019-03-24T03:33:30.366Z,91.40
2019-03-24T03:36:39.404Z,72.97
2019-03-24T03:39:39.174Z,69.10
2019-03-24T03:49:10.603Z,72.90
2019-03-24T03:58:59.647Z,68.97
2019-03-24T04:02:00.538Z,78.83
2019-03-24T04:05:01.720Z,89.13
2019-03-24T04:08:02.873Z,72.03
2019-03-24T04:11:04.153Z,74.50
2019-03-24T04:14:05.471Z,69.93
2019-03-24T04:17:12.762Z,88.23
2019-03-24T04:20:14.557Z,83.20
2019-03-24T04:26:21.628Z,84.50
2019-03-24T04:29:30.928Z,82.00
2019-03-24T04:32:30.480Z,87.17
2019-03-24T04:35:39.324Z,89.60
2019-03-24T04:38:40.453Z,98.17
2019-03-24T04:41:41.246Z,91.73
2019-03-24T04:44:40.811Z,90.63
2019-03-24T04:50:56.027Z,84.97
2019-03-24T04:53:46.275Z,94.20
2019-03-24T04:56:46.135Z,89.97
2019-03-24T04:59:55.322Z,95.70
2019-03-24T05:02:55.506Z,88.43
2019-03-24T05:06:14.712Z,85.50
2019-03-24T05:12:10.101Z,94.00
2019-03-24T05:15:00.219Z,87.00
2019-03-24T05:21:30.052Z,98.87
2019-03-24T05:24:31.395Z,85.50
2019-03-24T05:27:31.155Z,100.17
2019-03-24T05:30:40.135Z,96.40
2019-03-24T05:33:41.139Z,88.57
2019-03-24T05:36:41.513Z,78.13
2019-03-24T05:39:41.199Z,85.17
2019-03-24T05:46:10.979Z,85.27
2019-03-24T05:52:17.397Z,88.23
2019-03-24T05:55:36.494Z,88.90
2019-03-24T05:58:45.338Z,80.93
2019-03-24T06:01:45.188Z,93.87
2019-03-24T06:07:59.099Z,88.33
2019-03-24T06:14:33.210Z,74.47
2019-03-24T06:17:32.511Z,67.60
2019-03-24T06:23:47.243Z,72.90
2019-03-24T06:26:56.351Z,65.03
2019-03-24T06:29:56.471Z,81.10
2019-03-24T06:33:05.491Z,61.10
2019-03-24T06:36:06.891Z,72.83
2019-03-24T06:39:07.141Z,68.90
2019-03-24T06:45:28.419Z,55.77
2019-03-24T06:48:23.699Z,61.23
2019-03-24T06:54:37.902Z,55.33
2019-03-24T06:57:46.911Z,55.00
2019-03-24T07:00:48.272Z,69.60
2019-03-24T07:03:49.847Z,58.93
2019-03-24T07:06:49.368Z,64.17
2019-03-24T07:13:04.261Z,67.77
2019-03-24T07:19:46.416Z,50.27
2019-03-24T07:26:15.299Z,58.20
2019-03-24T07:29:15.311Z,65.97
2019-03-24T07:32:16.222Z,61.67
2019-03-24T07:35:15.750Z,61.40
2019-03-24T07:38:24.723Z,54.70
2019-03-24T07:41:25.703Z,62.10
2019-03-24T07:44:26.915Z,54.73
2019-03-24T07:47:27.901Z,58.00
2019-03-24T07:50:28.123Z,57.33
2019-03-24T07:57:02.999Z,51.73
2019-03-24T08:00:05.787Z,48.07
2019-03-24T08:06:21.672Z,46.93
2019-03-24T08:09:22.967Z,53.70
2019-03-24T08:12:23.289Z,46.97
2019-03-24T08:15:23.243Z,52.37
2019-03-24T08:18:32.399Z,59.23
2019-03-24T08:21:22.293Z,51.87
2019-03-24T08:31:12.161Z,52.07
2019-03-24T08:34:13.295Z,50.67
2019-03-24T08:37:03.516Z,49.73
2019-03-24T08:40:12.554Z,44.47
2019-03-24T08:43:21.493Z,47.73
2019-03-24T08:46:21.379Z,48.17
2019-03-24T08:49:11.328Z,54.77
2019-03-24T08:52:11.436Z,48.77
2019-03-24T08:58:44.572Z,44.40
2019-03-24T09:01:45.863Z,42.00
2019-03-24T09:04:47.088Z,42.07
2019-03-24T09:07:48.326Z,45.13
2019-03-24T09:10:48.312Z,47.00
2019-03-24T09:13:57.451Z,44.67
2019-03-24T09:20:15.855Z,40.17
2019-03-24T09:23:23.877Z,42.20
2019-03-24T09:33:08.284Z,39.63
2019-03-24T09:35:59.496Z,47.27
2019-03-24T09:38:49.598Z,41.00
2019-03-24T09:45:13.210Z,41.47
2019-03-24T09:48:13.239Z,42.60
2019-03-24T09:51:22.352Z,44.57
2019-03-24T09:54:23.599Z,44.13
2019-03-24T10:00:29.860Z,39.40
2019-03-24T10:03:39.103Z,105.33
2019-03-24T10:06:38.839Z,54.20
2019-03-24T10:12:55.060Z,40.63
2019-03-24T10:19:28.589Z,45.63
2019-03-24T10:22:29.820Z,42.30
2019-03-24T10:25:20.185Z,43.50
2019-03-24T10:31:54.084Z,40.73
2019-03-24T10:34:56.487Z,45.87
2019-03-24T10:37:56.259Z,43.57
2019-03-24T10:41:04.498Z,48.70
2019-03-24T10:44:04.655Z,41.23
2019-03-24T10:47:13.900Z,44.83
2019-03-24T10:50:14.517Z,43.87
2019-03-24T10:53:23.707Z,38.13
2019-03-24T10:56:23.858Z,41.27
2019-03-24T11:02:37.776Z,43.07
2019-03-24T11:09:08.243Z,45.63
2019-03-24T11:12:08.434Z,42.60
2019-03-24T11:15:17.435Z,42.23
2019-03-24T11:18:07.664Z,41.23
2019-03-24T11:20:57.859Z,46.47
2019-03-24T11:23:58.106Z,49.33
2019-03-24T11:33:25.811Z,47.30
2019-03-24T11:36:27.067Z,41.53
2019-03-24T11:39:27.571Z,40.33
2019-03-24T11:46:10.461Z,36.23
2019-03-24T11:49:19.552Z,81.60
2019-03-24T11:52:28.803Z,186.80
2019-03-24T11:55:28.919Z,401.77
2019-03-24T12:04:50.332Z,248.30
2019-03-24T12:18:00.834Z,61.70
2019-03-24T12:21:00.941Z,51.50
2019-03-24T12:27:35.199Z,45.73
2019-03-24T12:30:36.195Z,40.80
2019-03-24T12:36:43.458Z,43.70
2019-03-24T12:39:44.001Z,39.90
2019-03-24T12:42:45.077Z,55.03
2019-03-24T12:45:44.689Z,91.07
2019-03-24T12:52:05.831Z,41.13
2019-03-24T12:55:07.046Z,42.63
2019-03-24T12:58:07.306Z,48.37
2019-03-24T13:01:16.340Z,42.83
2019-03-24T13:07:44.275Z,46.53
2019-03-24T13:10:45.384Z,45.77
2019-03-24T13:13:46.901Z,46.83
2019-03-24T13:16:47.504Z,44.70
2019-03-24T13:19:37.775Z,39.17
2019-03-24T13:32:50.699Z,43.40
2019-03-24T13:39:10.403Z,44.03
2019-03-24T13:45:44.093Z,43.00
2019-03-24T13:48:43.639Z,47.93
2019-03-24T13:55:24.451Z,47.23
2019-03-24T13:58:24.235Z,39.77
2019-03-24T14:11:05.520Z,42.47
2019-03-24T14:14:06.863Z,43.37
2019-03-24T14:17:06.988Z,46.27
2019-03-24T14:26:30.929Z,44.47
2019-03-24T14:29:31.989Z,45.00
2019-03-24T14:32:33.407Z,44.33
2019-03-24T14:35:23.976Z,44.97
2019-03-24T14:42:02.025Z,43.57
2019-03-24T14:44:52.208Z,46.00
2019-03-24T14:47:55.967Z,47.77
2019-03-24T14:50:54.426Z,47.80
2019-03-24T14:53:49.143Z,50.37
2019-03-24T14:56:52.128Z,46.13
2019-03-24T14:59:52.383Z,53.93
2019-03-24T15:06:26.927Z,45.07
2019-03-24T15:12:42.619Z,51.30
2019-03-24T15:15:43.903Z,44.50
2019-03-24T15:18:46.290Z,48.37
2019-03-24T15:21:48.425Z,45.43
2019-03-24T15:24:50.242Z,53.57
2019-03-24T15:27:51.741Z,43.77
2019-03-24T15:31:02.422Z,48.97
2019-03-24T15:34:18.957Z,50.30
2019-03-24T15:37:33.596Z,50.40
2019-03-24T15:43:43.685Z,45.97
2019-03-24T15:46:43.937Z,48.77
2019-03-24T15:53:13.597Z,45.63
2019-03-24T15:56:13.935Z,49.30
2019-03-24T16:02:30.364Z,48.13
2019-03-24T16:05:46.392Z,48.73
2019-03-24T16:08:47.702Z,48.00
2019-03-24T16:20:40.060Z,50.43
2019-03-24T16:23:41.308Z,56.67
2019-03-24T16:26:42.548Z,57.73
2019-03-24T16:29:43.626Z,53.97
2019-03-24T16:32:44.751Z,43.77
2019-03-24T16:35:44.779Z,52.47
2019-03-24T16:39:03.405Z,48.30
2019-03-24T16:41:58.842Z,46.10
2019-03-24T16:45:04.804Z,52.47
2019-03-24T16:51:12.279Z,41.07
2019-03-24T16:54:21.378Z,52.80
2019-03-24T16:57:21.247Z,48.43
2019-03-24T17:03:44.860Z,54.70
2019-03-24T17:06:44.367Z,48.60
2019-03-24T17:13:19.035Z,44.83
2019-03-24T17:16:20.075Z,49.83
2019-03-24T17:22:17.550Z,50.23
2019-03-24T17:28:35.096Z,48.70
2019-03-24T17:31:25.130Z,43.03
2019-03-24T17:34:34.164Z,48.73
2019-03-24T17:37:35.479Z,51.27
2019-03-24T17:40:39.048Z,44.03
2019-03-24T17:43:38.803Z,46.80
2019-03-24T17:46:40.083Z,45.23
2019-03-24T17:49:47.449Z,54.70
2019-03-24T17:52:48.691Z,46.67
2019-03-24T17:55:50.402Z,47.97
2019-03-24T17:58:50.716Z,51.00
2019-03-24T18:01:59.771Z,49.90
2019-03-24T18:11:09.044Z,44.40
2019-03-24T18:14:09.354Z,49.83
2019-03-24T18:17:18.408Z,56.10
2019-03-24T18:30:18.971Z,53.77
2019-03-24T18:33:09.166Z,40.53
2019-03-24T18:36:10.294Z,47.30
2019-03-24T18:39:10.914Z,49.77
2019-03-24T18:45:28.105Z,44.50
2019-03-24T18:48:27.727Z,54.37
2019-03-24T18:55:10.714Z,50.70
2019-03-24T18:58:12.123Z,45.43
2019-03-24T19:04:02.527Z,44.77
2019-03-24T19:07:03.892Z,43.13
2019-03-24T19:10:06.107Z,43.90
2019-03-24T19:13:08.941Z,40.77
2019-03-24T19:16:10.664Z,35.50
2019-03-24T19:28:39.544Z,45.23
2019-03-24T19:31:59.871Z,37.93
2019-03-24T19:35:00.380Z,47.30
2019-03-24T19:38:01.697Z,34.17
2019-03-24T19:41:03.163Z,38.30
2019-03-24T19:44:04.638Z,39.43
2019-03-24T19:47:06.559Z,35.53
2019-03-24T19:49:56.706Z,38.07
2019-03-24T19:59:46.723Z,31.80
2019-03-24T20:02:48.048Z,38.57
2019-03-24T20:05:48.154Z,43.20
2019-03-24T20:08:57.164Z,37.27
2019-03-24T20:11:57.564Z,39.00
2019-03-24T20:18:33.507Z,37.13
2019-03-24T20:28:46.878Z,35.60
2019-03-24T20:31:36.771Z,33.90
2019-03-24T20:34:39.839Z,44.10
2019-03-24T20:41:16.579Z,37.07
2019-03-24T20:47:35.911Z,36.10
2019-03-24T20:53:43.697Z,39.53
2019-03-24T21:00:11.500Z,38.73
2019-03-24T21:03:11.677Z,32.50
2019-03-24T21:09:28.959Z,37.50
2019-03-24T21:15:43.416Z,33.53
2019-03-24T21:18:52.495Z,35.73
2019-03-24T21:21:53.799Z,45.33
2019-03-24T21:24:54.953Z,37.20
2019-03-24T21:31:01.911Z,44.73
2019-03-24T21:34:11.085Z,40.03
2019-03-24T21:37:12.904Z,31.20
2019-03-24T21:40:02.968Z,35.70
2019-03-24T21:43:02.997Z,39.90
2019-03-24T21:46:04.038Z,38.77
2019-03-24T21:49:04.078Z,36.00
2019-03-24T22:01:59.170Z,38.77
2019-03-24T22:05:00.461Z,35.20
2019-03-24T22:08:00.392Z,34.13
2019-03-24T22:11:09.508Z,36.23
2019-03-24T22:14:09.717Z,30.80
2019-03-24T22:27:33.176Z,28.57
2019-03-24T22:33:39.825Z,34.90
2019-03-24T22:36:48.779Z,30.07
2019-03-24T22:39:49.888Z,39.47
2019-03-24T22:42:55.607Z,36.63
2019-03-24T22:45:55.531Z,30.57
2019-03-24T22:48:56.381Z,32.27
2019-03-24T22:52:06.590Z,35.53
2019-03-24T22:58:32.118Z,32.07
2019-03-24T23:05:06.566Z,34.30
2019-03-24T23:08:07.573Z,32.37
2019-03-24T23:11:07.860Z,36.73
2019-03-24T23:20:41.877Z,34.67
2019-03-24T23:27:21.177Z,37.00
2019-03-24T23:30:30.265Z,33.10
2019-03-24T23:33:37.511Z,30.10
2019-03-24T23:36:37.931Z,36.87
2019-03-24T23:39:37.475Z,39.00
2019-03-24T23:42:38.587Z,26.93
2019-03-24T23:45:39.851Z,30.47
2019-03-24T23:48:39.988Z,23.50
2019-03-24T23:54:58.677Z,26.83
2019-03-24T23:57:59.786Z,30.73
